Time;durP1;ratioP1;P1;durP2;ratioP2;P2;SDS_P1;SDS_P2;PMS_P1;PMS_P2;Temp;Humidity;BMP_temperature;BMP_pressure;BME280_temperature;BME280_humidity;BME280_pressure;Samples;Min_cycle;Max_cycle;Signal;HPM_P1;HPM_P2
2023/05/10 00:01:51;;;;;;;61.53;28.55;;;;;;;8.76;100.00;100953.31;5134140;27;20031;-71
2023/05/10 00:04:16;;;;;;;61.78;27.00;;;;;;;8.69;100.00;100952.13;5134084;27;20043;-72
2023/05/10 00:06:42;;;;;;;57.22;26.50;;;;;;;8.63;100.00;100950.81;5132735;27;20027;-72
2023/05/10 00:09:07;;;;;;;72.82;30.90;;;;;;;8.55;100.00;100947.91;5133778;27;20031;-72
2023/05/10 00:11:32;;;;;;;66.57;28.65;;;;;;;8.52;100.00;100950.81;5134120;27;20114;-72
2023/05/10 00:13:58;;;;;;;56.00;25.35;;;;;;;8.47;100.00;100947.72;5133897;27;20164;-70
2023/05/10 00:16:23;;;;;;;72.68;30.75;;;;;;;8.43;100.00;100940.91;5133985;27;20447;-72
2023/05/10 00:18:48;;;;;;;65.95;28.20;;;;;;;8.39;100.00;100944.78;5133673;27;20475;-71
2023/05/10 00:21:14;;;;;;;85.95;34.58;;;;;;;8.33;100.00;100953.22;5133833;28;20080;-71
2023/05/10 00:23:39;;;;;;;91.35;34.70;;;;;;;8.32;100.00;100946.25;5134203;27;20035;-71
2023/05/10 00:26:05;;;;;;;79.88;30.60;;;;;;;8.34;100.00;100950.44;5133864;28;20423;-71
2023/05/10 00:28:30;;;;;;;81.38;31.67;;;;;;;8.35;100.00;100944.19;5133874;27;20056;-71
2023/05/10 00:30:55;;;;;;;72.65;29.67;;;;;;;8.34;100.00;100941.66;5133922;27;20036;-71
2023/05/10 00:33:21;;;;;;;78.40;32.60;;;;;;;8.27;100.00;100946.59;5132304;28;20042;-71
2023/05/10 00:35:46;;;;;;;69.68;29.40;;;;;;;8.22;100.00;100948.78;5134558;28;20106;-71
2023/05/10 00:38:12;;;;;;;55.30;23.60;;;;;;;8.17;100.00;100945.66;5133431;28;20035;-71
2023/05/10 00:40:37;;;;;;;63.92;26.35;;;;;;;8.09;100.00;100940.94;5133569;27;20039;-70
2023/05/10 00:43:03;;;;;;;54.85;23.73;;;;;;;8.03;100.00;100942.28;5133765;27;20065;-71
2023/05/10 00:45:30;;;;;;;56.08;23.55;;;;;;;7.97;100.00;100945.38;5134184;28;20070;-71
2023/05/10 00:47:55;;;;;;;52.92;21.55;;;;;;;7.92;100.00;100947.56;5134523;27;20031;-71
2023/05/10 00:50:24;;;;;;;51.50;21.98;;;;;;;7.87;100.00;100949.75;5133715;27;20477;-71
2023/05/10 00:52:50;;;;;;;52.83;22.58;;;;;;;7.82;100.00;100955.38;5133566;27;20118;-70
2023/05/10 00:55:15;;;;;;;75.78;29.73;;;;;;;7.83;100.00;100956.22;5133507;27;20123;-71
2023/05/10 00:57:41;;;;;;;70.45;27.80;;;;;;;7.84;100.00;100956.09;5133850;27;20049;-71
2023/05/10 01:00:07;;;;;;;74.63;30.00;;;;;;;7.91;100.00;100961.75;5131365;28;20103;-73
2023/05/10 01:02:34;;;;;;;66.32;27.02;;;;;;;7.92;100.00;100963.47;5133270;27;20089;-71
2023/05/10 01:05:00;;;;;;;69.10;29.70;;;;;;;7.92;100.00;100964.28;5133639;27;20051;-71
2023/05/10 01:07:25;;;;;;;64.82;26.70;;;;;;;7.96;100.00;100970.22;5133549;27;20474;-71
2023/05/10 01:09:50;;;;;;;82.45;31.95;;;;;;;8.00;100.00;100974.31;5135530;27;20118;-71
2023/05/10 01:12:16;;;;;;;75.72;30.75;;;;;;;8.08;100.00;100979.84;5137228;27;20412;-70
2023/05/10 01:14:42;;;;;;;91.93;37.13;;;;;;;8.21;100.00;100978.88;5137355;27;20076;-71
2023/05/10 01:17:09;;;;;;;104.57;38.45;;;;;;;8.34;100.00;100979.59;5137545;27;20050;-71
2023/05/10 01:19:37;;;;;;;121.30;40.15;;;;;;;8.48;100.00;100978.56;5137741;27;20038;-71
2023/05/10 01:22:34;;;;;;;131.20;42.15;;;;;;;8.61;100.00;100981.06;5137113;27;20107;-70
2023/05/10 01:25:27;;;;;;;136.50;42.85;;;;;;;8.71;100.00;100975.88;5108746;27;20077;-70
2023/05/10 01:28:16;;;;;;;140.57;41.60;;;;;;;8.75;100.00;100978.16;5137169;27;20035;-72
2023/05/10 01:31:05;;;;;;;130.07;42.25;;;;;;;8.80;100.00;100980.44;5136935;27;20023;-70
2023/05/10 01:33:51;;;;;;;128.85;41.10;;;;;;;8.85;100.00;100988.84;5137576;27;20117;-71
2023/05/10 01:36:26;;;;;;;142.68;44.67;;;;;;;8.92;100.00;100994.53;5169309;27;20087;-71
2023/05/10 01:39:00;;;;;;;153.23;45.08;;;;;;;9.05;100.00;100995.22;5136835;27;20459;-71
2023/05/10 01:41:40;;;;;;;147.52;45.40;;;;;;;9.18;100.00;100998.56;5136677;27;20084;-71
2023/05/10 01:44:44;;;;;;;160.05;45.72;;;;;;;9.29;100.00;101002.13;5136532;27;20027;-71
2023/05/10 01:47:12;;;;;;;140.77;42.15;;;;;;;9.35;100.00;101001.63;5136689;27;20034;-71
2023/05/10 01:49:46;;;;;;;145.57;40.95;;;;;;;9.40;100.00;101002.06;5136794;27;20053;-71
2023/05/10 01:52:19;;;;;;;118.38;38.25;;;;;;;9.44;100.00;101010.66;5135559;27;20074;-71
2023/05/10 01:54:53;;;;;;;122.10;40.60;;;;;;;9.48;100.00;101012.06;5136455;27;20060;-70
2023/05/10 01:57:22;;;;;;;123.22;39.95;;;;;;;9.51;100.00;101012.66;5136498;27;20039;-71
2023/05/10 01:59:50;;;;;;;106.90;35.25;;;;;;;9.55;100.00;101009.75;5136670;27;20126;-70
2023/05/10 02:02:18;;;;;;;121.03;39.35;;;;;;;9.60;100.00;101010.19;5136706;27;20103;-71
2023/05/10 02:04:45;;;;;;;102.00;37.97;;;;;;;9.63;100.00;101015.25;5136300;27;20034;-70
2023/05/10 02:07:11;;;;;;;127.07;40.65;;;;;;;9.67;100.00;101019.34;5136323;27;20028;-70
2023/05/10 02:09:38;;;;;;;126.95;40.20;;;;;;;9.71;100.00;101020.78;5135921;27;20031;-71
2023/05/10 02:12:06;;;;;;;117.60;39.92;;;;;;;9.74;100.00;101011.72;5136189;27;20432;-71
2023/05/10 02:14:35;;;;;;;115.55;40.40;;;;;;;9.74;100.00;101009.88;5136262;27;20031;-71
2023/05/10 02:17:03;;;;;;;114.75;40.97;;;;;;;9.76;100.00;101015.91;5136113;27;20039;-71
2023/05/10 02:19:29;;;;;;;109.93;38.72;;;;;;;9.79;100.00;101022.78;5135673;27;20053;-71
2023/05/10 02:21:57;;;;;;;107.22;38.58;;;;;;;9.80;100.00;101017.34;5135737;27;20110;-71
2023/05/10 02:24:27;;;;;;;114.07;39.58;;;;;;;9.82;100.00;101018.06;5135780;27;20066;-71
2023/05/10 02:26:57;;;;;;;113.22;38.88;;;;;;;9.84;100.00;101026.75;5136846;27;20447;-71
2023/05/10 02:29:25;;;;;;;119.90;39.13;;;;;;;9.86;100.00;101023.94;5136160;27;20031;-71
2023/05/10 02:31:53;;;;;;;121.85;42.13;;;;;;;9.88;100.00;101027.31;5135897;27;20368;-71
2023/05/10 02:34:21;;;;;;;107.22;37.83;;;;;;;9.88;100.00;101019.34;5135670;27;20107;-72
2023/05/10 02:36:48;;;;;;;118.35;41.03;;;;;;;9.88;100.00;101020.19;5135815;27;20035;-71
2023/05/10 02:39:15;;;;;;;112.50;36.35;;;;;;;9.90;100.00;101030.69;5135663;27;20038;-71
2023/05/10 02:41:43;;;;;;;100.35;36.03;;;;;;;9.90;100.00;101030.69;5135807;27;20118;-72
2023/05/10 02:44:09;;;;;;;95.90;35.25;;;;;;;9.91;100.00;101031.53;5135524;27;20027;-71
2023/05/10 02:46:36;;;;;;;85.07;33.72;;;;;;;9.92;100.00;101026.09;5135490;27;20030;-72
2023/05/10 02:49:02;;;;;;;103.43;37.28;;;;;;;9.93;100.00;101035.75;5135436;27;20486;-72
2023/05/10 02:51:32;;;;;;;81.40;33.08;;;;;;;9.93;100.00;101034.88;5136021;27;20031;-71
2023/05/10 02:54:03;;;;;;;99.85;36.33;;;;;;;9.92;100.00;101033.22;5135241;27;20499;-72
2023/05/10 02:56:33;;;;;;;93.30;33.55;;;;;;;9.91;100.00;101036.84;5135093;27;20119;-72
2023/05/10 02:58:58;;;;;;;79.90;31.98;;;;;;;9.93;100.00;101038.41;5134986;27;20027;-72
2023/05/10 03:01:23;;;;;;;80.90;31.52;;;;;;;9.93;100.00;101040.19;5134840;27;20059;-70
2023/05/10 03:03:49;;;;;;;85.03;32.38;;;;;;;9.91;100.00;101037.69;5135060;27;20118;-70
2023/05/10 03:06:16;;;;;;;82.25;33.38;;;;;;;9.91;100.00;101026.22;5135658;27;20035;-70
2023/05/10 03:08:42;;;;;;;83.15;31.73;;;;;;;9.92;100.00;101038.53;5135472;27;20038;-71
2023/05/10 03:11:21;;;;;;;86.75;32.33;;;;;;;9.89;100.00;101037.81;5135030;27;20019;-71
2023/05/10 03:14:12;;;;;;;87.60;37.03;;;;;;;9.88;100.00;101030.81;5135142;27;20031;-71
2023/05/10 03:16:50;;;;;;;72.43;30.55;;;;;;;9.88;100.00;101032.63;5134872;27;20030;-72
2023/05/10 03:19:27;;;;;;;97.00;38.20;;;;;;;9.86;100.00;101038.06;5135383;27;20030;-70
2023/05/10 03:21:56;;;;;;;73.40;30.98;;;;;;;9.89;100.00;101043.13;5134785;27;20422;-71
2023/05/10 03:24:25;;;;;;;80.72;32.97;;;;;;;9.89;100.00;101042.28;5134788;27;20019;-70
2023/05/10 03:26:54;;;;;;;82.75;34.17;;;;;;;9.88;100.00;101046.78;5134747;27;20029;-70
2023/05/10 03:29:21;;;;;;;85.88;34.55;;;;;;;9.88;100.00;101046.78;5135158;27;20451;-70
2023/05/10 03:31:47;;;;;;;84.10;34.30;;;;;;;9.89;100.00;101051.09;5135016;27;20036;-70
2023/05/10 03:34:12;;;;;;;91.18;36.42;;;;;;;9.88;100.00;101045.91;5134518;27;20031;-70
2023/05/10 03:36:37;;;;;;;76.93;33.70;;;;;;;9.88;100.00;101043.25;5134466;27;20034;-70
2023/05/10 03:39:03;;;;;;;73.28;31.38;;;;;;;9.84;100.00;101048.00;5134471;27;20034;-70
2023/05/10 03:41:29;;;;;;;90.80;39.10;;;;;;;9.84;100.00;101048.00;5134099;27;20424;-70
2023/05/10 03:43:54;;;;;;;80.35;32.97;;;;;;;9.86;100.00;101054.00;5134466;27;20391;-70
2023/05/10 03:46:19;;;;;;;84.50;33.17;;;;;;;9.87;100.00;101058.38;5115974;27;20023;-71
2023/05/10 03:48:45;;;;;;;79.13;34.63;;;;;;;9.86;100.00;101054.00;5135068;27;20135;-71
2023/05/10 03:51:10;;;;;;;72.93;31.42;;;;;;;9.86;100.00;101042.56;5134459;27;20089;-71
2023/05/10 03:53:35;;;;;;;79.78;33.20;;;;;;;9.85;100.00;101047.03;5134483;27;20523;-72
2023/05/10 03:56:01;;;;;;;62.92;25.85;;;;;;;9.87;100.00;101053.06;5133924;27;20035;-71
2023/05/10 03:58:26;;;;;;;64.25;26.58;;;;;;;9.84;100.00;101057.78;5134469;27;20035;-71
2023/05/10 04:00:52;;;;;;;69.70;28.00;;;;;;;9.81;100.00;101063.38;5133789;27;20062;-71
2023/05/10 04:03:17;;;;;;;64.82;26.55;;;;;;;9.81;100.00;101066.84;5134617;27;20042;-71
2023/05/10 04:05:43;;;;;;;71.35;26.48;;;;;;;9.81;100.00;101063.38;5134162;27;20073;-71
2023/05/10 04:08:08;;;;;;;60.38;23.25;;;;;;;9.79;100.00;101063.50;5132758;27;20046;-70
2023/05/10 04:10:34;;;;;;;56.67;21.45;;;;;;;9.77;100.00;101070.75;5134354;27;20030;-71
2023/05/10 04:13:00;;;;;;;46.53;19.30;;;;;;;9.75;100.00;101077.16;5133746;27;20443;-71
2023/05/10 04:15:25;;;;;;;54.78;18.67;;;;;;;9.70;100.00;101077.53;5133997;27;20031;-70
2023/05/10 04:17:51;;;;;;;52.45;17.00;;;;;;;9.69;100.00;101078.53;5133897;28;20527;-70
2023/05/10 04:20:16;;;;;;;55.22;19.75;;;;;;;9.66;100.00;101076.97;5133977;27;20031;-71
2023/05/10 04:22:42;;;;;;;68.78;22.17;;;;;;;9.66;100.00;101081.44;5133834;27;20035;-72
2023/05/10 04:25:08;;;;;;;75.32;21.88;;;;;;;9.65;100.00;101069.09;5134031;27;20092;-70
2023/05/10 04:27:33;;;;;;;68.50;22.05;;;;;;;9.67;100.00;101069.81;5133824;27;20046;-71
2023/05/10 04:29:58;;;;;;;62.15;23.10;;;;;;;9.73;100.00;101071.13;5133630;28;20487;-71
2023/05/10 04:32:24;;;;;;;60.75;21.58;;;;;;;9.73;100.00;101074.63;5133839;27;20057;-70
2023/05/10 04:34:51;;;;;;;56.97;19.95;;;;;;;9.73;100.00;101079.94;5133739;28;20437;-71
2023/05/10 04:37:16;;;;;;;56.92;21.15;;;;;;;9.72;100.00;101080.91;5134229;27;20114;-71
2023/05/10 04:39:42;;;;;;;53.90;19.45;;;;;;;9.73;100.00;101090.56;5133481;27;20055;-71
2023/05/10 04:42:07;;;;;;;54.75;21.85;;;;;;;9.73;100.00;101082.59;5134279;28;20028;-71
2023/05/10 04:44:33;;;;;;;58.70;21.98;;;;;;;9.75;100.00;101083.31;5135321;27;20459;-70
2023/05/10 04:46:59;;;;;;;62.42;21.75;;;;;;;9.77;100.00;101096.47;5137781;27;20351;-72
2023/05/10 04:49:25;;;;;;;98.47;18.88;;;;;;;9.75;100.00;101090.44;5137896;27;20027;-71
2023/05/10 04:51:50;;;;;;;67.38;15.02;;;;;;;9.73;100.00;101093.22;5137922;27;20042;-72
2023/05/10 04:54:15;;;;;;;71.65;12.15;;;;;;;9.71;100.00;101087.19;5137488;27;20078;-72
2023/05/10 04:56:41;;;;;;;50.15;12.25;;;;;;;9.65;100.00;101088.53;5138125;27;20344;-72
2023/05/10 04:59:06;;;;;;;72.32;13.48;;;;;;;9.63;100.00;101095.81;5137705;27;20027;-70
2023/05/10 05:01:32;;;;;;;49.83;11.95;;;;;;;9.60;100.00;101106.69;5137549;27;20079;-71
2023/05/10 05:03:58;;;;;;;46.70;11.32;;;;;;;9.55;100.00;101106.19;5137426;27;20069;-72
2023/05/10 05:06:24;;;;;;;46.72;11.93;;;;;;;9.53;100.00;101106.34;5137653;27;20031;-72
2023/05/10 05:08:50;;;;;;;40.17;10.02;;;;;;;9.55;100.00;101110.69;5137351;27;20484;-72
2023/05/10 05:11:16;;;;;;;33.05;10.60;;;;;;;9.57;100.00;101114.06;5136418;27;20031;-71
2023/05/10 05:13:41;;;;;;;33.22;10.20;;;;;;;9.58;100.00;101110.44;5137229;27;20114;-72
2023/05/10 05:16:07;;;;;;;29.60;10.80;;;;;;;9.61;100.00;101113.66;5136064;27;20031;-72
2023/05/10 05:18:32;;;;;;;27.42;10.30;;;;;;;9.60;100.00;101116.44;5137344;27;20026;-72
2023/05/10 05:20:57;;;;;;;29.60;10.63;;;;;;;9.61;100.00;101116.31;5137699;27;20092;-72
2023/05/10 05:23:24;;;;;;;28.33;9.63;;;;;;;9.61;100.00;101118.97;5135927;27;20031;-71
2023/05/10 05:25:52;;;;;;;29.15;11.57;;;;;;;9.68;100.00;101122.00;5137097;27;20069;-70
2023/05/10 05:28:17;;;;;;;33.50;12.38;;;;;;;9.74;100.00;101116.16;5135921;27;20031;-71
2023/05/10 05:30:43;;;;;;;25.33;10.48;;;;;;;9.79;100.00;101115.78;5137122;27;20023;-71
2023/05/10 05:33:08;;;;;;;23.33;11.07;;;;;;;9.81;100.00;101125.31;5136652;27;20466;-71
2023/05/10 05:35:33;;;;;;;21.15;10.80;;;;;;;9.84;100.00;101122.41;5136968;27;20024;-71
2023/05/10 05:37:59;;;;;;;23.73;10.50;;;;;;;9.91;100.00;101132.53;5136844;27;20087;-71
2023/05/10 05:40:24;;;;;;;18.40;9.85;;;;;;;9.95;100.00;101128.66;5136881;27;20035;-71
2023/05/10 05:42:50;;;;;;;19.50;9.65;;;;;;;10.00;100.00;101134.41;5135530;27;20114;-69
2023/05/10 05:45:15;;;;;;;15.38;8.20;;;;;;;10.02;100.00;101130.66;5136882;27;20034;-70
2023/05/10 05:47:41;;;;;;;15.63;8.75;;;;;;;10.03;100.00;101135.03;5136586;27;20060;-72
2023/05/10 05:50:06;;;;;;;17.13;8.60;;;;;;;10.05;100.00;101132.22;5137065;27;20379;-72
2023/05/10 05:52:32;;;;;;;17.17;8.30;;;;;;;10.12;100.00;101135.19;5136655;27;20117;-72
2023/05/10 05:54:57;;;;;;;14.32;7.65;;;;;;;10.17;100.00;101133.84;5136321;27;20522;-69
2023/05/10 05:57:23;;;;;;;16.55;7.60;;;;;;;10.25;100.00;101133.19;5135711;27;20134;-71
2023/05/10 05:59:48;;;;;;;14.85;6.97;;;;;;;10.38;100.00;101141.03;5136769;27;20429;-70
2023/05/10 06:02:13;;;;;;;15.20;7.93;;;;;;;10.53;100.00;101139.72;5136065;27;20142;-69
2023/05/10 06:04:39;;;;;;;13.55;7.55;;;;;;;10.66;100.00;101135.97;5136318;27;20557;-71
2023/05/10 06:07:04;;;;;;;12.32;7.25;;;;;;;10.84;100.00;101145.06;5136461;27;20446;-72
2023/05/10 06:09:29;;;;;;;13.02;6.78;;;;;;;11.07;100.00;101147.53;5135922;27;20041;-72
2023/05/10 06:11:55;;;;;;;10.52;6.40;;;;;;;11.44;100.00;101141.59;5136363;27;20055;-72
2023/05/10 06:14:21;;;;;;;10.60;6.50;;;;;;;11.78;100.00;101150.06;5136674;27;20118;-72
2023/05/10 06:16:46;;;;;;;11.13;6.18;;;;;;;12.02;100.00;101142.63;5135928;27;20038;-72
2023/05/10 06:19:12;;;;;;;6.80;4.95;;;;;;;12.10;100.00;101151.63;5134550;27;20063;-72
2023/05/10 06:21:37;;;;;;;7.07;4.90;;;;;;;12.04;100.00;101154.03;5135507;27;20040;-72
2023/05/10 06:24:03;;;;;;;6.65;4.70;;;;;;;12.03;100.00;101149.66;5135616;27;20031;-72
2023/05/10 06:26:28;;;;;;;5.82;4.75;;;;;;;11.99;100.00;101155.28;5135515;27;20035;-73
2023/05/10 06:28:53;;;;;;;6.78;4.60;;;;;;;12.01;100.00;101152.47;5135311;27;20448;-71
2023/05/10 06:31:19;;;;;;;7.40;5.03;;;;;;;11.96;100.00;101154.72;5135512;27;20019;-71
2023/05/10 06:33:44;;;;;;;8.48;5.50;;;;;;;11.75;100.00;101155.66;5135512;27;20034;-70
2023/05/10 06:36:10;;;;;;;12.85;6.72;;;;;;;11.71;100.00;101145.44;5135789;27;20110;-73
2023/05/10 06:38:35;;;;;;;8.93;6.60;;;;;;;11.78;100.00;101155.38;5134636;27;20035;-71
2023/05/10 06:41:00;;;;;;;9.43;6.13;;;;;;;11.90;100.00;101150.75;5135071;27;20150;-71
2023/05/10 06:43:28;;;;;;;15.00;6.80;;;;;;;11.99;100.00;101149.13;5135277;27;20095;-71
2023/05/10 06:45:53;;;;;;;13.18;6.95;;;;;;;12.04;100.00;101157.53;5135170;27;20028;-71
2023/05/10 06:48:19;;;;;;;12.50;6.45;;;;;;;12.07;100.00;101153.75;5134249;27;20032;-71
2023/05/10 06:50:44;;;;;;;11.82;5.78;;;;;;;12.22;100.00;101156.81;5135238;27;20027;-71
2023/05/10 06:53:10;;;;;;;13.25;5.95;;;;;;;12.28;100.00;101151.75;5135099;27;20031;-71
2023/05/10 06:55:35;;;;;;;10.40;5.85;;;;;;;12.33;100.00;101154.84;5134813;27;20023;-71
2023/05/10 06:58:01;;;;;;;9.80;5.20;;;;;;;12.41;100.00;101154.13;5135372;27;20118;-70
2023/05/10 07:00:27;;;;;;;10.20;5.30;;;;;;;12.43;100.00;101151.31;5134708;27;20027;-72
2023/05/10 07:02:52;;;;;;;8.90;5.18;;;;;;;12.52;100.00;101150.44;5134967;27;20038;-73
2023/05/10 07:05:18;;;;;;;7.28;5.07;;;;;;;12.59;100.00;101153.38;5134770;27;20031;-71
2023/05/10 07:07:43;;;;;;;11.13;4.70;;;;;;;12.64;100.00;101162.63;5134550;27;20043;-71
2023/05/10 07:10:09;;;;;;;10.68;5.63;;;;;;;12.66;100.00;101159.84;5135110;27;20483;-71
2023/05/10 07:12:35;;;;;;;12.07;5.53;;;;;;;12.52;100.00;101169.13;5134557;27;20471;-71
2023/05/10 07:15:00;;;;;;;9.00;5.03;;;;;;;12.50;100.00;101169.25;5134626;27;20027;-73
2023/05/10 07:17:26;;;;;;;7.72;5.15;;;;;;;12.52;100.00;101166.44;5134710;27;20055;-72
2023/05/10 07:19:51;;;;;;;8.52;5.85;;;;;;;12.56;100.00;101167.84;5134572;27;20031;-71
2023/05/10 07:22:17;;;;;;;7.53;5.05;;;;;;;12.55;100.00;101168.81;5134482;27;20110;-74
2023/05/10 07:24:43;;;;;;;5.90;5.05;;;;;;;12.52;100.00;101169.13;5135204;27;20055;-73
2023/05/10 07:27:08;;;;;;;7.30;5.43;;;;;;;12.44;100.00;101171.69;5134792;27;20027;-71
2023/05/10 07:29:34;;;;;;;10.20;5.32;;;;;;;12.40;100.00;101168.44;5134681;27;20118;-72
2023/05/10 07:32:00;;;;;;;8.93;5.38;;;;;;;12.36;100.00;101180.41;5134715;27;20031;-73
2023/05/10 07:34:25;;;;;;;8.80;5.22;;;;;;;12.32;100.00;101179.00;5134498;27;20027;-73
2023/05/10 07:36:51;;;;;;;9.48;4.97;;;;;;;12.28;100.00;101180.25;5134323;27;20084;-73
2023/05/10 07:39:16;;;;;;;6.93;4.60;;;;;;;12.29;100.00;101176.63;5134856;27;20482;-76
2023/05/10 07:41:42;;;;;;;6.68;4.63;;;;;;;12.34;100.00;101187.69;5134364;27;20467;-74
2023/05/10 07:44:07;;;;;;;6.00;4.30;;;;;;;12.39;100.00;101180.13;5132993;27;20435;-74
2023/05/10 07:46:33;;;;;;;8.20;4.28;;;;;;;12.54;100.00;101177.84;5134584;27;20029;-76
2023/05/10 07:48:58;;;;;;;4.35;3.38;;;;;;;12.78;100.00;101187.16;5134711;27;20125;-75
2023/05/10 07:51:23;;;;;;;4.10;3.20;;;;;;;12.92;100.00;101189.38;5134107;27;20170;-73
2023/05/10 07:53:49;;;;;;;5.90;3.55;;;;;;;13.03;100.00;101185.69;5133923;27;20031;-75
2023/05/10 07:56:22;;;;;;;3.63;3.15;;;;;;;13.19;100.00;101188.56;5133719;27;20456;-76
2023/05/10 07:58:47;;;;;;;3.83;3.05;;;;;;;13.29;100.00;101191.22;5133755;27;20503;-76
2023/05/10 08:01:13;;;;;;;3.60;3.03;;;;;;;13.39;100.00;101185.81;5133844;27;20070;-75
2023/05/10 08:03:38;;;;;;;6.78;3.38;;;;;;;13.50;100.00;101192.81;5132580;27;20039;-75
2023/05/10 08:06:04;;;;;;;3.45;2.92;;;;;;;13.55;100.00;101190.53;5115348;27;20030;-76
2023/05/10 08:08:29;;;;;;;2.85;2.47;;;;;;;13.58;100.00;101198.25;5133924;27;20106;-75
2023/05/10 08:10:55;;;;;;;4.18;2.80;;;;;;;13.55;100.00;101194.06;5133642;27;20137;-76
2023/05/10 08:13:21;;;;;;;3.58;2.85;;;;;;;13.56;100.00;101195.72;5133767;27;20031;-76
2023/05/10 08:15:47;;;;;;;4.43;3.05;;;;;;;13.59;100.00;101197.28;5134090;27;20430;-76
2023/05/10 08:18:12;;;;;;;3.35;2.80;;;;;;;13.49;100.00;101196.47;5133061;27;20618;-76
2023/05/10 08:20:37;;;;;;;4.13;2.70;;;;;;;13.47;100.00;101191.28;5133073;28;20063;-76
2023/05/10 08:23:03;;;;;;;3.75;2.50;;;;;;;13.48;100.00;101194.78;5133535;28;20092;-76
2023/05/10 08:25:28;;;;;;;3.92;2.58;;;;;;;13.50;100.00;101199.00;5133729;27;20467;-76
2023/05/10 08:27:54;;;;;;;3.42;2.70;;;;;;;13.63;100.00;101209.34;5133385;28;20035;-76
2023/05/10 08:30:19;;;;;;;3.47;2.63;;;;;;;13.66;100.00;101211.72;5133510;27;20458;-77
2023/05/10 08:32:44;;;;;;;4.35;2.65;;;;;;;13.57;100.00;101217.97;5133860;27;20349;-76
2023/05/10 08:35:10;;;;;;;2.60;2.40;;;;;;;13.40;100.00;101212.44;5133729;28;20039;-76
2023/05/10 08:37:35;;;;;;;2.75;2.30;;;;;;;13.21;100.00;101215.13;5133419;28;20114;-74
2023/05/10 08:40:00;;;;;;;3.97;2.47;;;;;;;13.09;100.00;101224.34;5133467;27;20471;-74
2023/05/10 08:42:30;;;;;;;3.28;2.90;;;;;;;13.06;100.00;101222.78;5133399;27;20023;-73
2023/05/10 08:44:56;;;;;;;3.55;3.15;;;;;;;13.15;100.00;101221.06;5133386;27;20455;-74
2023/05/10 08:47:22;;;;;;;4.93;3.60;;;;;;;13.28;100.00;101226.94;5133702;27;20075;-74
2023/05/10 08:49:51;;;;;;;7.60;4.30;;;;;;;13.41;100.00;101234.66;5133265;27;20024;-74
2023/05/10 08:52:17;;;;;;;6.97;3.95;;;;;;;13.56;100.00;101245.69;5133045;27;20039;-75
2023/05/10 08:54:43;;;;;;;9.88;5.40;;;;;;;13.51;100.00;101248.81;5133449;27;20034;-74
2023/05/10 08:57:10;;;;;;;8.57;5.60;;;;;;;13.33;100.00;101253.22;5131956;28;20031;-74
2023/05/10 08:59:35;;;;;;;10.15;6.82;;;;;;;13.14;100.00;101260.31;5133399;27;20037;-74
2023/05/10 09:02:02;;;;;;;11.50;7.15;;;;;;;12.96;100.00;101260.22;5133187;27;20039;-74
2023/05/10 09:04:29;;;;;;;15.50;7.25;;;;;;;12.88;100.00;101260.09;5133449;27;20439;-73
2023/05/10 09:06:54;;;;;;;12.43;7.35;;;;;;;12.92;100.00;101264.16;5133199;27;20142;-74
2023/05/10 09:09:21;;;;;;;14.85;7.57;;;;;;;12.94;100.00;101266.69;5133389;27;20049;-74
2023/05/10 09:11:47;;;;;;;12.40;6.72;;;;;;;13.19;100.00;101260.72;5133477;27;20092;-73
2023/05/10 09:14:13;;;;;;;14.02;6.97;;;;;;;13.46;100.00;101272.47;5133120;27;20027;-74
2023/05/10 09:16:39;;;;;;;14.45;7.32;;;;;;;13.70;100.00;101271.94;5133175;27;20412;-74
2023/05/10 09:19:05;;;;;;;12.10;6.75;;;;;;;14.12;100.00;101273.19;5133111;27;20031;-79
2023/05/10 09:21:31;;;;;;;13.82;6.57;;;;;;;14.72;100.00;101269.94;5132936;27;20080;-74
2023/05/10 09:23:56;;;;;;;11.52;7.15;;;;;;;15.34;100.00;101267.13;5132623;27;20046;-74
2023/05/10 09:26:23;;;;;;;14.70;7.03;;;;;;;15.89;100.00;101253.47;5132741;27;20140;-74
2023/05/10 09:28:54;;;;;;;11.27;6.20;;;;;;;16.11;100.00;101262.72;5132863;27;20038;-73
2023/05/10 09:31:19;;;;;;;20.02;7.03;;;;;;;16.28;100.00;101255.53;5135488;27;20027;-77
2023/05/10 09:33:46;;;;;;;12.18;6.30;;;;;;;16.32;100.00;101257.72;5136515;27;20360;-74
2023/05/10 09:36:13;;;;;;;17.90;7.15;;;;;;;16.17;100.00;101262.06;5136483;27;20041;-76
2023/05/10 09:38:46;;;;;;;16.65;7.72;;;;;;;15.99;100.00;101257.69;5136469;27;20479;-74
2023/05/10 09:41:22;;;;;;;9.50;5.75;;;;;;;15.75;100.00;101268.28;5136828;27;20181;-74
2023/05/10 09:43:48;;;;;;;12.13;6.60;;;;;;;15.31;100.00;101271.97;5136242;27;20160;-73
2023/05/10 09:46:15;;;;;;;14.00;6.47;;;;;;;14.93;100.00;101279.47;5136095;27;20054;-72
2023/05/10 09:48:46;;;;;;;15.40;7.50;;;;;;;14.59;100.00;101281.00;5136719;27;20094;-72
2023/05/10 09:51:20;;;;;;;14.63;7.22;;;;;;;14.59;100.00;101288.22;5136327;27;20031;-74
2023/05/10 09:53:45;;;;;;;18.67;7.60;;;;;;;14.65;100.00;101286.78;5136634;27;20172;-77
2023/05/10 09:56:11;;;;;;;12.88;7.15;;;;;;;14.68;100.00;101279.28;5136095;27;20459;-74
2023/05/10 09:58:40;;;;;;;13.45;6.53;;;;;;;14.58;100.00;101287.34;5136595;27;20139;-73
2023/05/10 10:01:11;;;;;;;14.00;6.75;;;;;;;14.53;100.00;101289.66;5135758;27;20054;-72
2023/05/10 10:03:41;;;;;;;;;;;;;;;14.53;100.00;101292.34;5136628;27;20080;-72
2023/05/10 10:06:08;;;;;;;15.10;7.55;;;;;;;14.57;100.00;101295.53;5136514;27;19912;-72
2023/05/10 10:08:34;;;;;;;12.88;6.75;;;;;;;14.42;100.00;101296.09;5135863;27;20116;-73
2023/05/10 10:10:59;;;;;;;12.15;6.25;;;;;;;14.16;100.00;101300.53;5136174;27;20042;-75
2023/05/10 10:13:25;;;;;;;19.23;6.90;;;;;;;13.91;100.00;101302.91;5135416;27;20024;-75
2023/05/10 10:15:54;;;;;;;18.58;7.75;;;;;;;13.72;100.00;101296.69;5136054;27;20487;-74
2023/05/10 10:18:23;;;;;;;13.48;7.82;;;;;;;13.59;100.00;101306.88;5135612;27;20433;-75
2023/05/10 10:20:48;;;;;;;12.88;7.75;;;;;;;13.56;100.00;101307.19;5135982;27;20019;-73
2023/05/10 10:23:14;;;;;;;15.40;8.18;;;;;;;13.64;100.00;101307.28;5135548;27;20031;-74
2023/05/10 10:25:39;;;;;;;16.05;8.65;;;;;;;13.93;100.00;101315.16;5135334;27;20031;-73
2023/05/10 10:28:23;;;;;;;14.43;7.90;;;;;;;13.93;100.00;101315.16;5135159;27;20084;-73
2023/05/10 10:30:52;;;;;;;14.30;7.60;;;;;;;13.97;100.00;101317.53;5135383;27;20035;-74
2023/05/10 10:33:36;;;;;;;21.13;9.07;;;;;;;13.85;100.00;101308.84;5135851;27;20105;-75
2023/05/10 10:36:03;;;;;;;18.58;8.30;;;;;;;13.63;100.00;101313.63;5135613;27;20080;-72
2023/05/10 10:39:02;;;;;;;17.73;7.55;;;;;;;13.53;100.00;101312.81;5135156;27;20110;-74
2023/05/10 10:41:35;;;;;;;17.65;7.13;;;;;;;13.26;100.00;101318.94;5123276;27;20036;-73
2023/05/10 10:44:25;;;;;;;10.35;6.18;;;;;;;13.14;100.00;101316.41;5135325;27;20055;-74
2023/05/10 10:47:30;;;;;;;9.27;5.90;;;;;;;12.97;100.00;101318.00;5134820;27;20027;-74
2023/05/10 10:50:03;;;;;;;12.65;6.57;;;;;;;12.94;100.00;101320.94;5135746;27;20447;-75
2023/05/10 10:52:37;;;;;;;11.98;6.57;;;;;;;12.94;100.00;101315.59;5135051;27;20035;-74
2023/05/10 10:55:12;;;;;;;10.25;6.68;;;;;;;12.84;100.00;101320.97;5134984;27;20529;-74
2023/05/10 10:57:40;;;;;;;11.52;6.97;;;;;;;12.63;100.00;101323.78;5135406;27;20027;-75
2023/05/10 11:00:26;;;;;;;10.05;6.38;;;;;;;12.61;100.00;101331.09;5134546;27;20068;-76
2023/05/10 11:02:53;;;;;;;10.63;6.32;;;;;;;12.53;100.00;101331.78;5134948;27;20047;-73
2023/05/10 11:05:41;;;;;;;12.25;7.88;;;;;;;12.53;100.00;101323.78;5135289;27;20043;-74
2023/05/10 11:08:16;;;;;;;16.08;8.95;;;;;;;12.55;100.00;101328.97;5135485;27;20123;-72
2023/05/10 11:11:10;;;;;;;12.00;7.38;;;;;;;12.59;100.00;101334.91;5135389;27;20036;-75
2023/05/10 11:13:40;;;;;;;14.35;8.68;;;;;;;12.51;100.00;101335.59;5134312;27;20072;-77